Time;durP1;ratioP1;P1;durP2;ratioP2;P2;SDS_P1;SDS_P2;PMS_P1;PMS_P2;Temp;Humidity;BMP_temperature;BMP_pressure;BME280_temperature;BME280_humidity;BME280_pressure;Samples;Min_cycle;Max_cycle;Signal;HPM_P1;HPM_P2
2023/12/16 06:02:13;;;;;;;11.40;6.50;;;5.60;91.10;;;;;;4131292;23;20050;-83
2023/12/16 06:04:15;;;;;;;11.73;7.15;;;5.50;91.10;;;;;;4117524;28;20058;-84
2023/12/16 06:06:17;;;;;;;11.32;6.95;;;5.50;91.10;;;;;;4131349;28;20437;-81
2023/12/16 06:08:18;;;;;;;11.98;7.38;;;5.50;91.20;;;;;;4117549;28;20106;-79
2023/12/16 06:10:19;;;;;;;12.43;7.20;;;5.50;91.20;;;;;;4121368;28;20547;-78
2023/12/16 06:12:21;;;;;;;12.50;6.82;;;5.50;91.30;;;;;;4121271;28;20109;-83
2023/12/16 06:14:23;;;;;;;12.60;7.50;;;5.40;91.30;;;;;;4117681;28;20117;-79
2023/12/16 06:16:24;;;;;;;12.25;6.95;;;5.60;91.60;;;;;;4113422;28;20171;-84
2023/12/16 06:18:27;;;;;;;11.80;6.78;;;5.60;91.30;;;;;;4114571;28;20050;-84
2023/12/16 06:20:29;;;;;;;12.95;6.90;;;5.60;91.00;;;;;;4106140;28;20051;-83
2023/12/16 06:22:31;;;;;;;11.27;7.35;;;5.40;90.80;;;;;;4114954;28;20050;-83
2023/12/16 06:24:33;;;;;;;11.00;7.30;;;5.50;90.70;;;;;;4117284;28;20484;-83
2023/12/16 06:26:35;;;;;;;10.60;7.43;;;5.40;90.70;;;;;;4116865;28;20121;-84
2023/12/16 06:28:36;;;;;;;12.32;7.10;;;5.40;90.90;;;;;;4116751;28;20047;-80
2023/12/16 06:30:39;;;;;;;14.20;7.72;;;5.40;90.90;;;;;;4116673;28;20047;-83
2023/12/16 06:32:41;;;;;;;11.45;7.55;;;5.40;90.80;;;;;;4116640;28;20051;-82
2023/12/16 06:34:46;;;;;;;11.93;7.25;;;5.40;90.70;;;;;;4116794;28;20535;-83
2023/12/16 06:36:48;;;;;;;10.85;7.30;;;5.40;90.70;;;;;;4117249;28;20050;-84
2023/12/16 06:38:50;;;;;;;13.25;7.68;;;5.40;90.70;;;;;;4102199;28;20044;-85
2023/12/16 06:40:52;;;;;;;13.45;8.20;;;5.30;90.80;;;;;;4110784;28;20101;-83
2023/12/16 06:42:54;;;;;;;11.75;8.02;;;5.20;90.80;;;;;;4123903;28;20054;-83
2023/12/16 06:44:56;;;;;;;13.63;7.57;;;5.20;90.80;;;;;;4130655;28;20074;-86
2023/12/16 06:46:57;;;;;;;11.65;7.60;;;5.20;90.80;;;;;;4122433;28;20054;-84
2023/12/16 06:48:59;;;;;;;11.90;8.32;;;5.20;91.10;;;;;;4120668;28;20046;-84
2023/12/16 06:51:03;;;;;;;12.52;8.23;;;5.20;91.00;;;;;;4120584;28;20440;-83
2023/12/16 06:53:04;;;;;;;13.90;8.38;;;5.10;91.00;;;;;;4119834;28;20455;-83
2023/12/16 06:55:08;;;;;;;12.38;7.57;;;5.10;91.20;;;;;;4120846;28;20477;-84
2023/12/16 06:57:09;;;;;;;11.45;7.68;;;5.10;91.30;;;;;;4121020;28;20051;-85
2023/12/16 06:59:11;;;;;;;14.43;8.38;;;5.10;91.10;;;;;;4126742;28;20050;-84
2023/12/16 07:01:14;;;;;;;12.05;7.60;;;5.10;91.30;;;;;;4128668;28;20059;-84
2023/12/16 07:03:16;;;;;;;12.43;7.20;;;5.10;91.00;;;;;;4143610;28;20057;-85
2023/12/16 07:05:18;;;;;;;13.60;7.47;;;5.10;91.00;;;;;;4128453;28;20047;-86
2023/12/16 07:07:21;;;;;;;10.77;6.90;;;5.10;90.90;;;;;;4127675;28;20065;-84
2023/12/16 07:09:23;;;;;;;10.77;6.88;;;5.10;90.90;;;;;;4129211;28;20050;-84
2023/12/16 07:11:24;;;;;;;11.13;6.47;;;5.20;90.90;;;;;;4125726;28;20101;-80
2023/12/16 07:13:26;;;;;;;10.60;6.93;;;5.20;90.70;;;;;;4114414;28;20050;-80
2023/12/16 07:15:28;;;;;;;11.95;7.65;;;5.20;90.70;;;;;;4118908;28;20050;-80
2023/12/16 07:17:31;;;;;;;9.75;6.78;;;5.20;90.80;;;;;;4119105;28;20047;-80
2023/12/16 07:19:34;;;;;;;10.07;6.70;;;5.20;90.70;;;;;;4119303;28;20047;-77
2023/12/16 07:21:36;;;;;;;9.98;6.20;;;5.30;90.70;;;;;;4119248;28;20543;-80
2023/12/16 07:23:39;;;;;;;10.45;6.68;;;5.30;90.60;;;;;;4118944;28;20051;-81
2023/12/16 07:25:41;;;;;;;11.68;7.28;;;5.40;90.60;;;;;;4119269;28;20512;-78
2023/12/16 07:27:43;;;;;;;11.57;7.30;;;5.40;90.60;;;;;;4118936;28;20042;-78
2023/12/16 07:29:44;;;;;;;10.98;7.07;;;5.40;90.50;;;;;;4118515;28;20070;-79
2023/12/16 07:31:47;;;;;;;9.60;6.53;;;5.40;90.50;;;;;;4112905;28;20050;-78
2023/12/16 07:33:50;;;;;;;10.65;6.95;;;5.40;90.60;;;;;;4102070;28;20416;-76
2023/12/16 07:35:51;;;;;;;22.13;13.50;;;5.50;90.50;;;;;;4109340;28;20050;-78
2023/12/16 07:37:53;;;;;;;10.70;6.63;;;5.40;90.30;;;;;;4118830;28;20047;-77
2023/12/16 07:39:55;;;;;;;11.13;7.35;;;5.30;90.10;;;;;;4118717;28;20073;-77
2023/12/16 07:41:57;;;;;;;9.48;6.43;;;5.30;90.20;;;;;;4119007;28;20266;-78
2023/12/16 07:43:59;;;;;;;10.75;6.85;;;5.20;90.20;;;;;;4118230;28;20054;-75
2023/12/16 07:46:03;;;;;;;10.85;6.40;;;5.30;90.20;;;;;;4118866;28;20051;-76
2023/12/16 07:48:05;;;;;;;12.43;6.60;;;5.30;90.30;;;;;;4118707;28;20468;-76
2023/12/16 07:50:10;;;;;;;10.57;6.18;;;5.40;90.10;;;;;;4107378;28;20164;-76
2023/12/16 07:52:12;;;;;;;12.13;6.82;;;5.30;90.00;;;;;;4118428;28;20130;-79
2023/12/16 07:54:14;;;;;;;11.10;6.57;;;5.30;90.10;;;;;;4111188;28;20055;-79
2023/12/16 07:56:24;;;;;;;10.05;6.25;;;5.30;90.20;;;;;;4113059;28;20518;-79
2023/12/16 07:58:26;;;;;;;9.43;6.18;;;5.10;90.10;;;;;;4108955;28;20054;-77
2023/12/16 08:00:27;;;;;;;10.73;6.65;;;5.10;90.50;;;;;;4119848;28;20050;-76
2023/12/16 08:02:30;;;;;;;11.27;6.57;;;5.20;90.50;;;;;;4129206;28;20101;-76
2023/12/16 08:04:33;;;;;;;11.02;6.50;;;5.20;90.60;;;;;;4118377;28;20071;-74
2023/12/16 08:06:34;;;;;;;10.00;6.22;;;5.20;90.40;;;;;;4118601;28;20057;-75
2023/12/16 08:08:35;;;;;;;10.00;6.10;;;5.30;90.50;;;;;;4118134;28;20506;-76
2023/12/16 08:10:37;;;;;;;8.82;6.10;;;5.30;90.40;;;;;;4118200;28;20075;-76
2023/12/16 08:12:41;;;;;;;9.63;6.25;;;5.40;90.20;;;;;;4118406;28;20411;-76
2023/12/16 08:14:42;;;;;;;9.98;5.80;;;5.40;90.00;;;;;;4118011;28;20050;-75
2023/12/16 08:16:43;;;;;;;9.25;6.05;;;5.40;89.90;;;;;;4118241;28;20046;-75
2023/12/16 08:18:45;;;;;;;10.63;6.20;;;5.40;89.60;;;;;;4117731;28;20130;-79
2023/12/16 08:20:47;;;;;;;9.35;5.97;;;5.30;89.80;;;;;;4104966;28;20511;-76
2023/12/16 08:22:49;;;;;;;11.68;6.18;;;5.30;90.10;;;;;;4112809;28;20171;-77
2023/12/16 08:24:51;;;;;;;7.97;5.38;;;5.40;90.00;;;;;;4118131;28;20050;-79
2023/12/16 08:26:52;;;;;;;8.65;5.43;;;5.40;89.90;;;;;;4118280;28;20102;-80
2023/12/16 08:28:55;;;;;;;9.10;5.43;;;5.40;90.00;;;;;;4117831;28;20050;-78
2023/12/16 08:30:57;;;;;;;9.07;5.32;;;5.40;89.20;;;;;;4118119;28;20573;-78
2023/12/16 08:32:58;;;;;;;7.75;5.22;;;5.50;89.60;;;;;;4117908;28;20385;-79
2023/12/16 08:35:00;;;;;;;8.73;5.60;;;5.60;89.30;;;;;;4117412;28;20130;-78
2023/12/16 08:37:02;;;;;;;12.98;7.68;;;5.60;88.70;;;;;;4101801;28;20118;-79
2023/12/16 08:39:03;;;;;;;8.85;6.15;;;5.60;88.80;;;;;;4102087;29;20495;-78
2023/12/16 08:41:07;;;;;;;19.60;11.68;;;5.60;88.70;;;;;;4108898;28;20057;-80
2023/12/16 08:43:09;;;;;;;11.25;7.40;;;5.60;89.50;;;;;;4115702;28;20057;-78
2023/12/16 08:45:12;;;;;;;10.38;5.80;;;5.60;88.90;;;;;;4117910;28;20079;-78
2023/12/16 08:47:14;;;;;;;8.73;5.57;;;5.70;88.80;;;;;;4117482;28;20058;-79
2023/12/16 08:49:16;;;;;;;8.93;5.70;;;5.70;88.50;;;;;;4118023;28;20468;-80
2023/12/16 08:51:22;;;;;;;8.82;5.57;;;5.70;88.50;;;;;;4118483;28;20488;-79
2023/12/16 08:53:24;;;;;;;9.20;5.65;;;5.80;88.80;;;;;;4118043;28;20051;-78
2023/12/16 08:55:27;;;;;;;7.72;4.88;;;5.80;88.60;;;;;;4118958;28;20535;-77
2023/12/16 08:57:28;;;;;;;10.00;5.55;;;5.80;88.40;;;;;;4117425;28;20069;-80
2023/12/16 08:59:30;;;;;;;9.80;5.88;;;5.90;89.60;;;;;;4114819;28;20067;-77
2023/12/16 09:01:33;;;;;;;7.78;4.93;;;5.90;88.80;;;;;;4114122;28;20051;-77
2023/12/16 09:03:35;;;;;;;9.65;6.15;;;6.00;88.70;;;;;;4118151;28;20500;-78
2023/12/16 09:05:37;;;;;;;8.98;5.43;;;6.00;88.20;;;;;;4111273;28;20118;-79
2023/12/16 09:07:39;;;;;;;8.40;5.47;;;6.00;87.90;;;;;;4116514;28;20137;-80
2023/12/16 09:09:41;;;;;;;8.95;5.60;;;6.10;88.00;;;;;;4117351;28;20050;-77
2023/12/16 09:11:45;;;;;;;11.43;7.38;;;6.10;88.00;;;;;;4118127;28;20109;-77
2023/12/16 09:13:46;;;;;;;12.55;8.00;;;6.10;87.70;;;;;;4117652;28;20117;-77
2023/12/16 09:15:48;;;;;;;17.83;11.43;;;6.10;87.30;;;;;;4117794;28;20408;-78
2023/12/16 09:17:51;;;;;;;12.95;8.43;;;6.20;87.30;;;;;;4117346;28;20505;-75
2023/12/16 09:19:53;;;;;;;13.70;8.23;;;6.20;87.10;;;;;;4116730;28;20051;-78
2023/12/16 09:21:55;;;;;;;10.07;6.70;;;6.20;87.10;;;;;;4117390;28;20054;-79
2023/12/16 09:23:56;;;;;;;9.40;5.43;;;6.20;87.50;;;;;;4116865;28;20085;-80
2023/12/16 09:25:58;;;;;;;8.55;5.40;;;6.30;86.90;;;;;;4115518;28;20079;-78
2023/12/16 09:28:00;;;;;;;9.20;5.10;;;6.20;86.20;;;;;;4117587;28;20093;-80
2023/12/16 09:30:02;;;;;;;8.27;5.53;;;6.20;87.00;;;;;;4118753;28;20078;-79
2023/12/16 09:32:05;;;;;;;8.70;5.20;;;6.30;86.90;;;;;;4119418;28;20109;-80
2023/12/16 09:34:09;;;;;;;7.88;4.90;;;6.30;86.70;;;;;;4120407;28;20469;-78
2023/12/16 09:36:12;;;;;;;8.93;5.40;;;6.40;86.50;;;;;;4119691;28;20122;-77
2023/12/16 09:38:14;;;;;;;26.30;16.45;;;6.40;86.50;;;;;;4120157;28;20051;-80
2023/12/16 09:40:16;;;;;;;28.90;18.15;;;6.40;86.30;;;;;;4119893;28;20047;-79
2023/12/16 09:42:19;;;;;;;21.42;12.30;;;6.40;86.20;;;;;;4118602;28;20096;-78
2023/12/16 09:44:21;;;;;;;15.68;8.88;;;6.50;86.00;;;;;;4117630;28;20134;-79
2023/12/16 09:46:26;;;;;;;8.93;5.80;;;6.50;86.00;;;;;;4119521;28;20456;-78
2023/12/16 09:48:30;;;;;;;9.00;5.47;;;6.50;85.70;;;;;;4119155;28;20133;-80
2023/12/16 09:50:36;;;;;;;8.27;5.35;;;6.50;85.70;;;;;;4119118;28;20054;-78
2023/12/16 09:52:39;;;;;;;8.13;5.22;;;6.50;85.20;;;;;;4119088;28;20050;-80
2023/12/16 09:54:40;;;;;;;8.38;5.18;;;6.50;85.80;;;;;;4119651;28;20121;-80
2023/12/16 09:56:44;;;;;;;8.38;5.53;;;6.50;85.80;;;;;;4120912;28;20046;-82
2023/12/16 09:58:48;;;;;;;9.70;5.80;;;6.60;86.10;;;;;;4118475;28;20105;-81
2023/12/16 10:00:51;;;;;;;8.32;5.70;;;6.60;86.00;;;;;;4117169;28;20082;-79
2023/12/16 10:02:56;;;;;;;8.18;5.55;;;6.60;85.70;;;;;;4123296;28;20047;-80
2023/12/16 10:04:59;;;;;;;9.25;5.88;;;6.60;86.00;;;;;;4116121;28;20540;-82
2023/12/16 10:07:03;;;;;;;9.23;5.25;;;6.60;85.90;;;;;;4107908;28;20401;-80
2023/12/16 10:09:04;;;;;;;8.95;5.50;;;6.60;85.30;;;;;;4115814;28;20125;-83
2023/12/16 10:11:06;;;;;;;7.63;5.03;;;6.50;85.60;;;;;;4099973;29;20066;-76
2023/12/16 10:13:08;;;;;;;8.93;5.72;;;6.40;85.80;;;;;;4104225;28;20055;-81
2023/12/16 10:15:10;;;;;;;11.95;5.88;;;6.40;86.30;;;;;;4115374;28;20054;-79
2023/12/16 10:17:12;;;;;;;9.75;6.07;;;6.30;86.90;;;;;;4115430;28;20141;-81
2023/12/16 10:19:14;;;;;;;10.02;5.75;;;6.30;87.60;;;;;;4115779;28;20499;-79
2023/12/16 10:21:20;;;;;;;9.70;6.57;;;6.30;87.50;;;;;;4114360;28;20389;-81
2023/12/16 10:23:24;;;;;;;10.45;6.85;;;6.30;87.60;;;;;;4114267;28;20051;-80
2023/12/16 10:25:27;;;;;;;12.27;7.10;;;6.20;87.80;;;;;;4114528;28;20178;-79
2023/12/16 10:27:28;;;;;;;10.85;7.07;;;6.20;87.90;;;;;;4112542;28;20054;-82
2023/12/16 10:29:32;;;;;;;11.82;7.20;;;6.20;88.00;;;;;;4114074;28;20073;-79
2023/12/16 10:31:34;;;;;;;12.38;7.43;;;6.30;88.20;;;;;;4113726;28;20050;-80
2023/12/16 10:33:36;;;;;;;10.05;6.55;;;6.20;87.70;;;;;;4113858;28;20043;-80
2023/12/16 10:35:38;;;;;;;11.80;6.90;;;6.30;87.90;;;;;;4114385;28;20471;-79
2023/12/16 10:37:50;;;;;;;12.57;7.45;;;6.30;87.90;;;;;;4109844;28;20595;-78
2023/12/16 10:39:53;;;;;;;10.90;7.13;;;6.30;88.60;;;;;;4117172;28;20476;-81
2023/12/16 10:41:57;;;;;;;10.52;6.25;;;6.30;89.00;;;;;;4134335;28;20078;-86
2023/12/16 10:44:37;;;;;;;9.77;6.53;;;6.40;88.70;;;;;;4119863;28;20054;-86
2023/12/16 10:46:45;;;;;;;11.75;6.70;;;6.50;87.70;;;;;;4102577;28;20043;-87
2023/12/16 10:48:51;;;;;;;11.60;5.95;;;6.60;87.90;;;;;;4117850;28;20133;-86
2023/12/16 10:50:56;;;;;;;8.68;5.70;;;6.60;87.30;;;;;;4123760;28;20059;-87
2023/12/16 10:53:03;;;;;;;11.60;6.32;;;6.70;86.50;;;;;;4118690;28;20055;-81
2023/12/16 10:55:13;;;;;;;9.45;6.03;;;6.80;87.30;;;;;;4118603;28;20058;-83
2023/12/16 10:57:23;;;;;;;9.23;5.70;;;6.80;86.70;;;;;;4119820;28;20051;-85
2023/12/16 10:59:33;;;;;;;9.38;5.03;;;6.80;85.90;;;;;;4119741;28;20042;-86
2023/12/16 11:01:40;;;;;;;9.10;5.55;;;6.90;85.30;;;;;;4118589;28;20130;-86
2023/12/16 11:03:49;;;;;;;8.77;5.80;;;7.00;84.80;;;;;;4120918;28;20086;-87
2023/12/16 11:05:54;;;;;;;9.15;4.95;;;7.20;84.90;;;;;;4119912;28;20039;-81
2023/12/16 11:08:01;;;;;;;8.98;5.32;;;7.30;84.20;;;;;;4117152;28;20039;-82
2023/12/16 11:10:05;;;;;;;7.47;4.68;;;7.30;83.40;;;;;;4118863;28;20055;-82
2023/12/16 11:12:10;;;;;;;7.80;4.95;;;7.40;82.50;;;;;;4118104;28;20137;-80
2023/12/16 11:14:13;;;;;;;8.00;4.88;;;7.40;81.20;;;;;;4114960;28;20047;-77
2023/12/16 11:16:22;;;;;;;6.72;3.80;;;7.50;81.20;;;;;;4114585;28;20059;-77
2023/12/16 11:18:28;;;;;;;7.20;4.75;;;7.40;80.20;;;;;;4109638;28;20167;-78
2023/12/16 11:20:42;;;;;;;7.97;4.50;;;7.50;80.90;;;;;;4106521;28;20129;-79
2023/12/16 11:22:51;;;;;;;6.30;3.85;;;7.60;79.80;;;;;;4115288;28;20489;-79
2023/12/16 11:24:53;;;;;;;6.60;3.83;;;7.60;79.60;;;;;;4114654;28;20180;-77
2023/12/16 11:26:55;;;;;;;6.85;4.00;;;7.60;78.60;;;;;;4113839;28;20051;-78
2023/12/16 11:28:58;;;;;;;6.65;4.13;;;7.70;78.90;;;;;;4114461;28;20051;-78
2023/12/16 11:31:11;;;;;;;8.90;4.72;;;7.70;78.70;;;;;;4113797;28;20202;-76
2023/12/16 11:33:12;;;;;;;8.50;4.25;;;7.50;79.10;;;;;;4116306;28;20050;-79
2023/12/16 11:35:14;;;;;;;6.88;4.35;;;7.60;80.00;;;;;;4116692;28;20058;-80
2023/12/16 11:37:43;;;;;;;6.85;4.07;;;7.80;79.60;;;;;;4115118;28;20047;-76
2023/12/16 11:39:48;;;;;;;7.45;4.60;;;7.80;79.20;;;;;;4116390;28;20048;-78
2023/12/16 11:41:49;;;;;;;8.40;4.53;;;7.70;78.50;;;;;;4116418;28;20113;-79
2023/12/16 11:43:53;;;;;;;7.30;4.72;;;7.70;79.30;;;;;;4116392;28;20137;-79
2023/12/16 11:45:56;;;;;;;6.65;4.38;;;7.60;79.20;;;;;;4116564;28;20057;-76
2023/12/16 11:47:58;;;;;;;7.10;4.53;;;7.50;80.10;;;;;;4116599;28;20050;-79
2023/12/16 11:50:00;;;;;;;6.55;3.67;;;7.50;81.20;;;;;;4116396;28;20055;-78
2023/12/16 11:52:02;;;;;;;5.88;3.15;;;7.50;79.00;;;;;;4114627;28;20047;-77
2023/12/16 11:54:05;;;;;;;6.53;3.22;;;7.40;78.90;;;;;;4116485;28;20125;-78
2023/12/16 11:56:08;;;;;;;7.05;3.60;;;7.50;79.60;;;;;;4116442;28;20113;-78
2023/12/16 11:58:11;;;;;;;5.18;3.45;;;7.60;78.70;;;;;;4115178;28;20055;-79
2023/12/16 12:00:14;;;;;;;6.45;3.28;;;7.70;78.40;;;;;;4114711;28;20504;-76
2023/12/16 12:02:18;;;;;;;11.07;4.30;;;7.80;78.10;;;;;;4101534;28;20070;-78
2023/12/16 12:04:20;;;;;;;7.45;3.67;;;8.10;78.50;;;;;;4116100;28;20050;-81
2023/12/16 12:06:24;;;;;;;6.68;3.78;;;8.20;77.20;;;;;;4116292;28;20118;-79
2023/12/16 12:08:24;;;;;;;7.38;3.90;;;8.30;78.10;;;;;;4116382;28;20051;-81
2023/12/16 12:10:26;;;;;;;6.75;3.80;;;8.60;77.00;;;;;;4116236;28;20050;-80
2023/12/16 12:12:28;;;;;;;8.07;4.13;;;8.90;76.80;;;;;;4116184;28;20055;-78
2023/12/16 12:14:29;;;;;;;8.65;4.47;;;9.10;75.50;;;;;;4115715;28;20384;-78
2023/12/16 12:16:32;;;;;;;7.32;4.70;;;9.40;76.50;;;;;;4116464;28;20051;-77
2023/12/16 12:18:35;;;;;;;8.50;4.82;;;9.70;75.30;;;;;;4116816;28;20501;-79
2023/12/16 12:20:37;;;;;;;8.60;4.90;;;10.00;74.60;;;;;;4115044;28;20126;-79
2023/12/16 12:22:40;;;;;;;8.95;4.63;;;10.20;74.10;;;;;;4117617;28;20134;-78
2023/12/16 12:24:43;;;;;;;8.77;4.97;;;10.50;73.00;;;;;;4116541;28;20535;-80
2023/12/16 12:26:46;;;;;;;7.22;4.45;;;10.60;72.70;;;;;;4116261;28;20448;-79
2023/12/16 12:28:57;;;;;;;11.82;7.05;;;10.80;70.60;;;;;;4115778;28;20059;-75
2023/12/16 12:31:07;;;;;;;11.52;6.30;;;11.00;70.00;;;;;;4115864;28;20661;-75
2023/12/16 12:33:10;;;;;;;8.90;5.50;;;11.30;68.60;;;;;;4115878;28;20198;-75
2023/12/16 12:35:13;;;;;;;7.05;4.60;;;11.60;67.70;;;;;;4115302;28;20059;-74
2023/12/16 12:37:15;;;;;;;8.95;4.80;;;12.10;66.80;;;;;;4114107;28;20059;-74
2023/12/16 12:39:17;;;;;;;7.40;4.38;;;12.50;65.10;;;;;;4115812;28;20061;-74
2023/12/16 12:41:19;;;;;;;8.57;5.07;;;13.30;63.20;;;;;;4115582;28;20479;-77
2023/12/16 12:43:29;;;;;;;12.15;6.60;;;15.30;58.50;;;;;;4115303;28;20051;-76
2023/12/16 12:45:33;;;;;;;8.80;4.47;;;18.60;50.80;;;;;;4115774;28;20105;-75
2023/12/16 12:47:34;;;;;;;10.93;5.20;;;20.10;46.50;;;;;;4115986;28;20077;-76
2023/12/16 12:49:36;;;;;;;9.70;4.00;;;21.90;42.50;;;;;;4115358;28;20113;-76
2023/12/16 12:51:50;;;;;;;6.35;4.05;;;23.30;39.40;;;;;;4113411;28;20423;-76
2023/12/16 12:56:47;;;;;;;9.45;3.92;;;25.00;31.70;;;;;;4110630;28;20058;-75
2023/12/16 12:59:11;;;;;;;7.38;4.00;;;24.40;34.10;;;;;;4115339;28;20466;-76
2023/12/16 13:01:35;;;;;;;8.20;4.00;;;24.20;33.50;;;;;;4114645;28;20477;-76
2023/12/16 13:03:37;;;;;;;6.82;3.35;;;24.10;34.60;;;;;;4115434;28;20054;-78
2023/12/16 13:05:39;;;;;;;7.30;4.53;;;24.80;32.10;;;;;;4115177;28;20055;-78
2023/12/16 13:07:42;;;;;;;9.27;4.20;;;23.30;32.40;;;;;;4115170;28;20047;-79
2023/12/16 13:09:43;;;;;;;7.55;4.38;;;21.50;35.90;;;;;;4115193;28;20054;-80
2023/12/16 13:11:45;;;;;;;8.38;3.90;;;20.30;38.80;;;;;;4114998;28;20089;-80
2023/12/16 13:13:47;;;;;;;8.70;4.53;;;19.20;41.00;;;;;;4111799;28;20595;-78
2023/12/16 13:15:50;;;;;;;7.75;4.40;;;19.60;41.60;;;;;;4114645;28;20092;-77
2023/12/16 13:17:51;;;;;;;9.18;4.70;;;20.80;40.40;;;;;;4115770;28;20121;-78
2023/12/16 13:19:54;;;;;;;7.40;4.55;;;21.80;37.70;;;;;;4114606;28;20065;-77
2023/12/16 13:21:56;;;;;;;8.95;4.88;;;21.30;37.90;;;;;;4115389;28;20404;-79
2023/12/16 13:23:59;;;;;;;7.30;4.35;;;20.50;38.80;;;;;;4115127;28;20105;-79
2023/12/16 13:26:00;;;;;;;8.73;4.40;;;20.00;40.20;;;;;;4114913;28;20055;-76
2023/12/16 13:28:03;;;;;;;7.82;4.65;;;19.60;40.00;;;;;;4114948;28;20476;-78
2023/12/16 13:30:05;;;;;;;8.60;4.72;;;18.90;41.50;;;;;;4113493;28;20055;-78
2023/12/16 13:32:08;;;;;;;9.10;5.20;;;18.70;42.20;;;;;;4114734;28;20090;-77
2023/12/16 13:34:10;;;;;;;9.02;4.78;;;18.80;43.30;;;;;;4103246;28;20114;-77
2023/12/16 13:36:12;;;;;;;8.98;4.30;;;19.40;42.10;;;;;;4111183;28;20054;-78
2023/12/16 13:38:14;;;;;;;7.07;4.57;;;18.50;42.30;;;;;;4114535;28;20047;-77
2023/12/16 13:40:17;;;;;;;7.90;5.15;;;18.30;43.50;;;;;;4114840;28;20047;-78
2023/12/16 13:42:20;;;;;;;8.52;5.00;;;19.80;42.80;;;;;;4114860;28;20055;-77
2023/12/16 13:44:21;;;;;;;7.97;4.13;;;22.20;38.90;;;;;;4114863;28;20507;-78
2023/12/16 13:46:23;;;;;;;8.32;4.53;;;24.20;34.90;;;;;;4117938;28;20550;-77
2023/12/16 13:48:25;;;;;;;8.38;4.50;;;26.00;32.40;;;;;;4114720;28;20108;-77
2023/12/16 13:50:27;;;;;;;10.68;4.75;;;27.10;30.10;;;;;;4114449;28;20109;-79
2023/12/16 13:52:28;;;;;;;8.55;4.95;;;28.30;28.50;;;;;;4112496;28;20463;-76
2023/12/16 13:54:30;;;;;;;8.88;5.30;;;29.30;27.90;;;;;;4114146;28;20050;-77
2023/12/16 13:56:33;;;;;;;8.07;4.88;;;29.90;26.90;;;;;;4114328;28;20046;-79
2023/12/16 13:58:36;;;;;;;8.75;4.95;;;30.60;25.80;;;;;;4114526;28;20042;-78
2023/12/16 14:00:38;;;;;;;9.07;5.03;;;30.80;25.20;;;;;;4114401;28;20062;-77
2023/12/16 14:02:39;;;;;;;7.57;4.75;;;30.60;25.40;;;;;;4114146;28;20069;-77
2023/12/16 14:04:43;;;;;;;7.35;4.40;;;30.20;25.20;;;;;;4114273;28;20161;-76
2023/12/16 14:06:45;;;;;;;7.78;4.75;;;29.80;25.50;;;;;;4114298;28;20054;-76
2023/12/16 14:08:47;;;;;;;10.10;5.13;;;30.20;25.40;;;;;;4114313;28;20047;-79
2023/12/16 14:10:50;;;;;;;8.50;4.43;;;29.70;25.30;;;;;;4114261;28;20051;-78
2023/12/16 14:12:52;;;;;;;8.10;4.70;;;29.90;25.50;;;;;;4115465;28;20046;-84
2023/12/16 14:14:54;;;;;;;7.97;4.47;;;29.40;25.70;;;;;;4114492;28;20055;-79
2023/12/16 14:16:56;;;;;;;9.25;4.78;;;27.20;26.40;;;;;;4114122;28;20069;-78
2023/12/16 14:18:57;;;;;;;9.05;5.50;;;25.40;28.60;;;;;;4114970;28;20062;-79
2023/12/16 14:20:58;;;;;;;9.48;5.80;;;23.60;30.70;;;;;;4114440;28;20058;-80
2023/12/16 14:23:00;;;;;;;7.78;5.18;;;22.10;33.30;;;;;;4114602;28;20460;-80
2023/12/16 14:25:04;;;;;;;7.53;4.75;;;21.00;35.40;;;;;;4114410;28;20169;-79
2023/12/16 14:27:06;;;;;;;9.57;5.47;;;19.70;37.90;;;;;;4114316;28;20480;-80
2023/12/16 14:29:09;;;;;;;9.07;5.50;;;18.80;39.20;;;;;;4114308;28;20055;-80
2023/12/16 14:31:10;;;;;;;8.70;5.45;;;18.10;40.90;;;;;;4114847;28;20051;-80
2023/12/16 14:33:13;;;;;;;11.30;4.93;;;17.40;42.50;;;;;;4114670;28;20530;-81
2023/12/16 14:35:15;;;;;;;10.10;5.25;;;16.90;44.00;;;;;;4114440;28;20051;-81
2023/12/16 14:37:17;;;;;;;8.90;5.45;;;16.40;44.90;;;;;;4114684;28;20551;-81
2023/12/16 14:39:19;;;;;;;9.68;5.45;;;16.00;46.00;;;;;;4114644;28;20105;-80
2023/12/16 14:41:21;;;;;;;9.85;5.65;;;15.50;47.40;;;;;;4137531;28;20047;-80
2023/12/16 14:43:23;;;;;;;9.88;5.70;;;15.20;48.10;;;;;;4114650;28;20117;-81
2023/12/16 14:45:27;;;;;;;11.23;5.68;;;14.90;49.00;;;;;;4114545;28;20436;-79
2023/12/16 14:47:29;;;;;;;12.30;6.22;;;14.50;50.00;;;;;;4114517;28;20476;-81
2023/12/16 14:49:31;;;;;;;12.25;5.80;;;14.20;51.00;;;;;;4113117;28;20501;-80
2023/12/16 14:51:38;;;;;;;10.68;5.88;;;14.00;51.80;;;;;;4112619;28;20452;-76
2023/12/16 14:53:40;;;;;;;10.75;6.28;;;13.80;52.50;;;;;;4114496;28;20405;-80
2023/12/16 14:55:42;;;;;;;11.77;6.53;;;13.50;52.80;;;;;;4114527;28;20054;-79
2023/12/16 14:57:44;;;;;;;10.35;6.28;;;13.30;53.60;;;;;;4114627;28;20109;-81
2023/12/16 14:59:45;;;;;;;10.25;5.70;;;13.10;54.30;;;;;;4114293;28;20055;-80
2023/12/16 15:01:48;;;;;;;8.82;5.25;;;12.80;55.30;;;;;;4114593;28;20058;-81
2023/12/16 15:03:50;;;;;;;10.90;5.07;;;12.60;56.00;;;;;;4117650;28;20153;-83
2023/12/16 15:05:52;;;;;;;12.18;5.60;;;12.30;56.60;;;;;;4116844;28;20078;-80
2023/12/16 15:07:55;;;;;;;12.45;5.43;;;12.20;57.30;;;;;;4117606;28;20051;-80
2023/12/16 15:09:58;;;;;;;12.15;5.57;;;11.90;58.00;;;;;;4118234;28;20058;-81
2023/12/16 15:12:00;;;;;;;11.63;5.47;;;11.80;58.30;;;;;;4101630;29;20055;-79
2023/12/16 15:14:03;;;;;;;11.35;5.65;;;11.60;58.70;;;;;;4100967;28;20062;-81
2023/12/16 15:16:06;;;;;;;10.05;5.15;;;11.50;59.20;;;;;;4112992;28;20061;-79
2023/12/16 15:18:10;;;;;;;11.30;5.03;;;11.30;59.50;;;;;;4117023;28;20051;-81
2023/12/16 15:20:12;;;;;;;9.63;4.85;;;11.10;59.90;;;;;;4116197;28;20062;-80
2023/12/16 15:22:14;;;;;;;11.57;5.25;;;11.00;60.70;;;;;;4116753;28;20109;-80
2023/12/16 15:24:16;;;;;;;15.73;5.55;;;10.90;61.20;;;;;;4117334;28;20050;-80
2023/12/16 15:26:19;;;;;;;9.90;4.85;;;10.70;61.40;;;;;;4117343;28;20100;-82
2023/12/16 15:28:21;;;;;;;9.65;4.90;;;10.60;62.40;;;;;;4117653;28;20412;-81
2023/12/16 15:30:23;;;;;;;10.00;5.00;;;10.40;62.80;;;;;;4117516;28;20507;-82
2023/12/16 15:32:24;;;;;;;10.35;4.75;;;10.40;63.50;;;;;;4117360;28;20078;-83
2023/12/16 15:34:28;;;;;;;11.43;5.00;;;10.30;63.40;;;;;;4116645;28;20047;-80
2023/12/16 15:36:30;;;;;;;8.43;4.50;;;10.10;64.00;;;;;;4117658;28;20463;-80
2023/12/16 15:38:32;;;;;;;9.68;5.50;;;9.90;64.50;;;;;;4131881;28;20058;-83
2023/12/16 15:40:34;;;;;;;10.82;5.25;;;9.80;65.40;;;;;;4117035;28;20055;-81
2023/12/16 15:42:36;;;;;;;10.35;5.05;;;9.70;66.20;;;;;;4117188;28;20050;-78
2023/12/16 15:44:39;;;;;;;10.50;4.68;;;9.50;66.50;;;;;;4116245;28;20399;-80
2023/12/16 15:46:42;;;;;;;11.63;7.57;;;9.40;67.20;;;;;;4117104;28;20050;-79
2023/12/16 15:48:44;;;;;;;11.75;5.95;;;9.30;67.50;;;;;;4116798;28;20106;-80
2023/12/16 15:50:48;;;;;;;12.60;5.35;;;9.20;68.30;;;;;;4116690;28;20047;-79
2023/12/16 15:52:50;;;;;;;12.02;5.75;;;9.20;68.50;;;;;;4115126;28;20081;-79
2023/12/16 15:54:51;;;;;;;10.90;5.28;;;9.00;68.60;;;;;;4116319;28;20089;-79
2023/12/16 15:56:54;;;;;;;9.95;5.13;;;8.90;69.30;;;;;;4116870;28;20138;-81
2023/12/16 15:58:56;;;;;;;10.75;4.88;;;8.80;69.80;;;;;;4116574;28;20123;-79
2023/12/16 16:00:58;;;;;;;13.27;5.78;;;8.70;70.50;;;;;;4115975;28;20125;-80
2023/12/16 16:03:00;;;;;;;12.07;5.28;;;8.60;70.80;;;;;;4116238;28;20051;-78
2023/12/16 16:05:03;;;;;;;11.57;5.35;;;8.50;71.00;;;;;;4115914;28;20055;-77
2023/12/16 16:07:07;;;;;;;11.68;5.55;;;8.40;71.40;;;;;;4116577;28;20412;-80
2023/12/16 16:09:09;;;;;;;11.45;5.40;;;8.40;72.50;;;;;;4116920;28;20440;-79
2023/12/16 16:11:11;;;;;;;11.60;5.50;;;8.30;72.10;;;;;;4115608;28;20050;-82
2023/12/16 16:13:14;;;;;;;10.35;5.43;;;8.30;72.80;;;;;;4117018;28;20078;-80
2023/12/16 16:15:16;;;;;;;11.52;6.07;;;8.20;72.60;;;;;;4117498;28;20125;-80
2023/12/16 16:17:18;;;;;;;14.48;7.18;;;8.10;73.10;;;;;;4119755;28;20448;-86
2023/12/16 16:19:20;;;;;;;14.45;7.15;;;8.10;73.30;;;;;;4118293;28;20373;-81
2023/12/16 16:21:22;;;;;;;24.58;12.77;;;8.00;73.70;;;;;;4116253;28;20476;-79
2023/12/16 16:23:26;;;;;;;13.40;6.60;;;7.90;73.70;;;;;;4116606;28;20055;-78
2023/12/16 16:25:28;;;;;;;20.85;10.35;;;7.80;74.30;;;;;;4117889;28;20137;-83
2023/12/16 16:27:30;;;;;;;43.90;21.88;;;7.70;74.70;;;;;;4116315;28;20058;-80
2023/12/16 16:29:32;;;;;;;24.15;12.95;;;7.70;74.90;;;;;;4115229;28;20046;-81
2023/12/16 16:31:37;;;;;;;22.10;11.07;;;7.70;75.00;;;;;;4116249;28;20445;-79
2023/12/16 16:33:40;;;;;;;19.13;9.23;;;7.60;75.10;;;;;;4116561;28;20054;-81
2023/12/16 16:35:42;;;;;;;14.48;8.38;;;7.60;75.70;;;;;;4116222;28;20105;-82
2023/12/16 16:37:46;;;;;;;14.15;7.60;;;7.50;75.90;;;;;;4116658;28;20145;-80
2023/12/16 16:39:49;;;;;;;15.43;7.95;;;7.50;76.20;;;;;;4116949;28;20055;-81
2023/12/16 16:41:51;;;;;;;12.63;7.20;;;7.40;76.20;;;;;;4116866;28;20553;-81
2023/12/16 16:43:53;;;;;;;13.40;8.20;;;7.40;76.30;;;;;;4117116;28;20394;-81
2023/12/16 16:45:54;;;;;;;12.60;6.95;;;7.40;76.50;;;;;;4116760;28;20074;-79